createdAt,value
2023-04-18T00:04:48.202Z,100.00
2023-04-18T00:09:50.187Z,100.00
2023-04-18T00:14:52.185Z,100.00
2023-04-18T00:19:54.436Z,100.00
2023-04-18T00:24:55.984Z,100.00
2023-04-18T00:29:57.322Z,100.00
2023-04-18T00:34:58.632Z,100.00
2023-04-18T00:40:00.832Z,100.00
2023-04-18T00:45:02.159Z,100.00
2023-04-18T00:50:03.608Z,100.00
2023-04-18T00:55:07.201Z,100.00
2023-04-18T01:00:10.442Z,100.00
2023-04-18T01:05:11.956Z,100.00
2023-04-18T01:10:13.508Z,100.00
2023-04-18T01:15:15.822Z,100.00
2023-04-18T01:20:17.529Z,100.00
2023-04-18T01:25:18.995Z,100.00
2023-04-18T01:30:20.413Z,100.00
2023-04-18T01:35:22.722Z,100.00
2023-04-18T01:40:24.369Z,100.00
2023-04-18T01:45:25.690Z,100.00
2023-04-18T01:50:27.036Z,100.00
2023-04-18T01:55:28.337Z,100.00
2023-04-18T02:00:29.665Z,100.00
2023-04-18T02:05:31.016Z,100.00
2023-04-18T02:10:32.333Z,100.00
2023-04-18T02:15:34.035Z,100.00
2023-04-18T02:20:36.288Z,100.00
2023-04-18T02:25:37.629Z,100.00
2023-04-18T02:30:38.960Z,100.00
2023-04-18T02:35:40.634Z,100.00
2023-04-18T02:40:41.994Z,100.00
2023-04-18T02:45:43.365Z,100.00
2023-04-18T02:50:44.712Z,100.00
2023-04-18T02:55:46.842Z,100.00
2023-04-18T03:00:49.933Z,100.00
2023-04-18T03:05:51.232Z,100.00
2023-04-18T03:10:53.218Z,100.00
2023-04-18T03:15:55.710Z,100.00
2023-04-18T03:20:57.042Z,100.00
2023-04-18T03:25:58.460Z,100.00
2023-04-18T03:30:59.863Z,100.00
2023-04-18T03:36:01.192Z,100.00
2023-04-18T03:41:02.539Z,100.00
2023-04-18T03:46:03.926Z,100.00
2023-04-18T03:51:05.765Z,100.00
2023-04-18T03:56:07.113Z,100.00
2023-04-18T04:01:08.437Z,100.00
2023-04-18T04:06:09.755Z,100.00
2023-04-18T04:11:11.494Z,100.00
2023-04-18T04:16:13.012Z,100.00
2023-04-18T04:21:14.452Z,100.00
2023-04-18T04:26:15.903Z,100.00
2023-04-18T04:31:18.696Z,100.00
2023-04-18T04:36:22.965Z,100.00
2023-04-18T04:41:24.735Z,100.00
2023-04-18T04:46:29.414Z,100.00
2023-04-18T04:51:31.634Z,100.00
2023-04-18T04:56:33.177Z,100.00
2023-04-18T05:01:34.586Z,100.00
2023-04-18T05:06:36.443Z,100.00
2023-04-18T05:11:38.727Z,100.00
2023-04-18T05:16:40.278Z,100.00
2023-04-18T05:21:42.016Z,100.00
2023-04-18T05:26:43.334Z,100.00
2023-04-18T05:31:44.644Z,100.00
2023-04-18T05:36:47.754Z,100.00
2023-04-18T05:41:49.127Z,100.00
2023-04-18T05:46:52.004Z,100.00
2023-04-18T05:51:53.329Z,100.00
2023-04-18T05:56:54.798Z,90.91
2023-04-18T06:01:56.467Z,84.08
2023-04-18T06:06:57.804Z,79.94
2023-04-18T06:11:59.240Z,87.08
2023-04-18T06:17:00.680Z,90.54
2023-04-18T06:22:02.046Z,75.63
2023-04-18T06:27:03.499Z,75.38
2023-04-18T06:32:05.282Z,64.14
2023-04-18T06:37:07.262Z,61.70
2023-04-18T06:42:08.651Z,62.11
2023-04-18T06:47:10.588Z,62.12
2023-04-18T06:52:11.935Z,57.72
2023-04-18T06:57:13.320Z,60.56
2023-04-18T07:02:17.708Z,51.27
2023-04-18T07:07:20.647Z,53.40
2023-04-18T07:12:22.409Z,49.91
2023-04-18T07:17:24.025Z,49.12
2023-04-18T07:22:25.826Z,47.55
2023-04-18T07:27:27.483Z,51.75
2023-04-18T07:32:28.863Z,50.78
2023-04-18T07:37:30.551Z,51.10
2023-04-18T07:42:31.941Z,56.30
2023-04-18T07:47:33.810Z,54.95
2023-04-18T07:52:36.826Z,57.95
2023-04-18T07:57:39.478Z,58.87
2023-04-18T08:02:44.676Z,59.33
2023-04-18T08:07:46.182Z,60.32
2023-04-18T08:12:47.488Z,61.92
2023-04-18T08:17:49.201Z,62.48
2023-04-18T08:27:58.805Z,64.49
2023-04-18T08:33:00.968Z,65.83
2023-04-18T08:38:02.831Z,65.53
2023-04-18T08:43:07.892Z,64.76
2023-04-18T08:48:13.785Z,65.10
2023-04-18T08:53:16.760Z,65.52
2023-04-18T08:58:22.260Z,65.34
2023-04-18T09:03:43.099Z,65.08
2023-04-18T09:08:56.364Z,63.27
2023-04-18T09:13:59.045Z,63.88
2023-04-18T09:19:11.170Z,62.94
2023-04-18T09:24:28.366Z,57.24
2023-04-18T09:29:43.475Z,50.66
2023-04-18T09:34:45.020Z,47.61
2023-04-18T09:39:46.473Z,50.71
2023-04-18T09:45:06.644Z,53.17
2023-04-18T09:50:10.968Z,53.67
2023-04-18T09:55:17.321Z,56.82
2023-04-18T10:00:23.755Z,54.65
2023-04-18T10:05:26.951Z,56.37
2023-04-18T10:10:28.719Z,56.88
2023-04-18T10:15:30.865Z,56.52
2023-04-18T10:20:33.370Z,56.18
2023-04-18T10:25:34.678Z,56.51
2023-04-18T10:30:42.105Z,59.53
2023-04-18T10:35:55.856Z,59.49
2023-04-18T10:41:16.033Z,59.33
2023-04-18T10:46:28.308Z,60.78
2023-04-18T10:51:32.842Z,59.21
2023-04-18T10:56:34.391Z,58.87
2023-04-18T11:01:38.034Z,58.54
2023-04-18T11:06:49.257Z,58.06
2023-04-18T11:12:07.422Z,55.47
2023-04-18T11:17:40.094Z,55.17
2023-04-18T11:22:49.183Z,55.74
2023-04-18T11:27:51.579Z,53.59
2023-04-18T11:32:54.106Z,55.64
2023-04-18T11:37:56.058Z,52.60
2023-04-18T11:43:00.696Z,50.19
2023-04-18T11:48:02.526Z,51.57
2023-04-18T11:53:03.933Z,56.00
2023-04-18T11:58:06.799Z,57.85
2023-04-18T12:03:22.537Z,56.13
2023-04-18T12:08:25.347Z,56.05
2023-04-18T12:13:31.277Z,56.39
2023-04-18T12:18:32.645Z,54.43
2023-04-18T12:23:35.602Z,52.66
2023-04-18T12:28:36.986Z,54.61
2023-04-18T12:33:38.361Z,55.09
2023-04-18T12:38:39.705Z,55.55
2023-04-18T12:43:41.121Z,55.80
2023-04-18T12:48:42.516Z,55.95
2023-04-18T12:53:43.836Z,54.21
2023-04-18T12:58:45.388Z,53.37
2023-04-18T13:03:53.414Z,54.55
2023-04-18T13:09:01.540Z,51.38
2023-04-18T13:14:02.854Z,50.43
2023-04-18T13:19:04.259Z,50.36
2023-04-18T13:24:05.709Z,52.55
2023-04-18T13:29:07.046Z,53.50
2023-04-18T13:34:08.424Z,53.26
2023-04-18T13:39:10.584Z,51.45
2023-04-18T13:44:11.902Z,51.53
2023-04-18T13:49:13.850Z,53.22
2023-04-18T13:54:16.447Z,53.05
2023-04-18T13:59:17.795Z,52.40
2023-04-18T14:04:20.809Z,50.83
2023-04-18T14:09:22.284Z,51.83
2023-04-18T14:14:23.795Z,49.97
2023-04-18T14:19:25.299Z,50.61
2023-04-18T14:24:26.768Z,51.19
2023-04-18T14:29:28.119Z,54.11
2023-04-18T14:34:31.226Z,55.45
2023-04-18T14:39:34.730Z,56.14
2023-04-18T14:44:36.060Z,57.20
2023-04-18T14:49:37.432Z,56.58
2023-04-18T14:54:38.794Z,56.86
2023-04-18T14:59:40.086Z,56.84
2023-04-18T15:04:41.494Z,56.89
2023-04-18T15:09:42.961Z,57.24
2023-04-18T15:14:44.471Z,56.17
2023-04-18T15:19:45.862Z,56.58
2023-04-18T15:24:47.416Z,55.46
2023-04-18T15:29:48.753Z,55.36
2023-04-18T15:34:50.156Z,52.86
2023-04-18T15:39:51.462Z,52.37
2023-04-18T15:44:52.813Z,53.14
2023-04-18T15:49:54.134Z,53.14
2023-04-18T15:54:57.182Z,53.45
2023-04-18T15:59:59.409Z,54.78
2023-04-18T16:05:00.924Z,54.72
2023-04-18T16:10:05.094Z,54.47
2023-04-18T16:15:08.100Z,54.23
2023-04-18T16:20:09.545Z,55.76
2023-04-18T16:25:12.729Z,56.38
2023-04-18T16:30:14.088Z,56.05
2023-04-18T16:35:15.431Z,54.69
2023-04-18T16:40:16.837Z,54.74
2023-04-18T16:45:18.173Z,55.52
2023-04-18T16:50:19.818Z,56.30
2023-04-18T16:55:21.448Z,56.09
2023-04-18T17:00:22.900Z,56.38
2023-04-18T17:05:25.809Z,56.98
2023-04-18T17:10:28.824Z,56.79
2023-04-18T17:15:30.779Z,57.83
2023-04-18T17:20:32.202Z,57.77
2023-04-18T17:25:33.605Z,58.66
2023-04-18T17:30:34.960Z,59.20
2023-04-18T17:35:36.287Z,60.27
2023-04-18T17:40:37.654Z,59.07
2023-04-18T17:45:39.109Z,60.33
2023-04-18T17:50:41.119Z,61.03
2023-04-18T17:55:42.513Z,60.90
2023-04-18T18:00:43.915Z,61.24
2023-04-18T18:05:46.138Z,60.93
2023-04-18T18:10:47.479Z,61.69
2023-04-18T18:15:48.864Z,62.50
2023-04-18T18:20:50.558Z,62.42
2023-04-18T18:25:52.140Z,62.49
2023-04-18T18:30:53.671Z,62.20
2023-04-18T18:35:56.682Z,63.37
2023-04-18T18:41:01.638Z,63.80
2023-04-18T18:46:04.570Z,64.41
2023-04-18T18:51:06.055Z,64.92
2023-04-18T18:56:08.687Z,65.07
2023-04-18T19:01:11.458Z,64.76
2023-04-18T19:06:12.775Z,64.75
2023-04-18T19:11:15.952Z,65.80
2023-04-18T19:16:17.403Z,65.40
2023-04-18T19:21:20.161Z,65.65
2023-04-18T19:26:21.790Z,65.89
2023-04-18T19:31:23.618Z,64.35
2023-04-18T19:36:25.004Z,64.42
2023-04-18T19:41:26.384Z,64.51
2023-04-18T19:46:27.743Z,64.68
2023-04-18T19:51:29.213Z,64.74
2023-04-18T19:56:30.643Z,64.93
2023-04-18T20:01:32.006Z,65.40
2023-04-18T20:06:33.615Z,65.59
2023-04-18T20:11:35.020Z,65.52
2023-04-18T20:16:36.522Z,65.48
2023-04-18T20:21:37.885Z,66.56
2023-04-18T20:26:39.191Z,67.01
2023-04-18T20:31:42.304Z,67.34
2023-04-18T20:36:44.232Z,67.15
2023-04-18T20:41:48.817Z,66.91
2023-04-18T20:46:51.852Z,67.36
2023-04-18T20:51:53.259Z,67.25
2023-04-18T20:56:54.569Z,67.98
2023-04-18T21:01:56.075Z,68.49
2023-04-18T21:06:57.863Z,68.28
2023-04-18T21:11:59.206Z,69.67
2023-04-18T21:17:00.799Z,69.44
2023-04-18T21:22:02.376Z,69.75
2023-04-18T21:27:04.120Z,71.28
2023-04-18T21:32:05.687Z,71.59
2023-04-18T21:37:07.000Z,70.78
2023-04-18T21:42:08.565Z,71.81
2023-04-18T21:47:09.888Z,70.61
2023-04-18T21:52:11.217Z,70.51
2023-04-18T21:57:12.539Z,71.66
2023-04-18T22:02:13.964Z,71.95
2023-04-18T22:07:21.453Z,71.13
2023-04-18T22:12:22.757Z,70.95
2023-04-18T22:17:24.147Z,71.15
2023-04-18T22:22:25.757Z,71.55
2023-04-18T22:27:27.115Z,71.92
2023-04-18T22:32:28.600Z,71.68
2023-04-18T22:37:29.957Z,72.96
2023-04-18T22:42:33.758Z,72.66
2023-04-18T22:47:36.160Z,73.32
2023-04-18T22:52:38.123Z,73.52
2023-04-18T22:57:39.548Z,75.18
2023-04-18T23:02:41.660Z,73.79
2023-04-18T23:07:43.135Z,74.79
2023-04-18T23:12:45.103Z,74.63
2023-04-18T23:17:46.415Z,75.33
2023-04-18T23:22:50.103Z,75.53
2023-04-18T23:27:51.864Z,74.70
2023-04-18T23:32:53.794Z,76.33
2023-04-18T23:37:55.249Z,76.40
2023-04-18T23:42:57.062Z,77.37
2023-04-18T23:47:58.477Z,76.74
2023-04-18T23:52:59.848Z,77.30
2023-04-18T23:58:01.244Z,76.90
